createdAt,value
2023-05-08T00:00:00.426Z,8.61
2023-05-08T00:02:27.092Z,8.60
2023-05-08T00:04:53.899Z,8.61
2023-05-08T00:07:20.597Z,8.63
2023-05-08T00:09:47.219Z,8.63
2023-05-08T00:12:13.866Z,8.60
2023-05-08T00:14:40.549Z,8.57
2023-05-08T00:17:07.157Z,8.53
2023-05-08T00:19:34.063Z,8.51
2023-05-08T00:22:00.921Z,8.50
2023-05-08T00:24:27.597Z,8.49
2023-05-08T00:26:54.249Z,8.49
2023-05-08T00:29:20.852Z,8.48
2023-05-08T00:31:47.547Z,8.47
2023-05-08T00:34:14.240Z,8.47
2023-05-08T00:36:40.854Z,8.44
2023-05-08T00:39:07.911Z,8.42
2023-05-08T00:41:34.501Z,8.42
2023-05-08T00:44:01.187Z,8.41
2023-05-08T00:46:27.836Z,8.38
2023-05-08T00:48:54.465Z,8.38
2023-05-08T00:51:21.063Z,8.40
2023-05-08T00:53:47.710Z,8.41
2023-05-08T00:56:15.541Z,8.41
2023-05-08T00:58:42.561Z,8.40
2023-05-08T01:01:09.300Z,8.40
2023-05-08T01:03:36.496Z,8.38
2023-05-08T01:06:04.427Z,8.34
2023-05-08T01:08:31.925Z,8.32
2023-05-08T01:11:22.175Z,8.31
2023-05-08T01:14:18.536Z,8.27
2023-05-08T01:17:23.704Z,8.25
2023-05-08T01:19:59.926Z,8.22
2023-05-08T01:22:32.673Z,8.19
2023-05-08T01:25:32.950Z,8.17
2023-05-08T01:28:24.173Z,8.14
2023-05-08T01:31:01.102Z,8.13
2023-05-08T01:33:37.356Z,8.11
2023-05-08T01:36:15.265Z,8.09
2023-05-08T01:38:53.627Z,8.08
2023-05-08T01:41:26.170Z,8.06
2023-05-08T01:44:18.896Z,8.05
2023-05-08T01:46:51.109Z,8.04
2023-05-08T01:49:27.937Z,8.02
2023-05-08T01:52:03.675Z,8.02
2023-05-08T01:54:34.138Z,8.01
2023-05-08T01:57:00.767Z,7.99
2023-05-08T01:59:28.241Z,7.98
2023-05-08T02:01:57.249Z,7.98
2023-05-08T02:04:24.040Z,7.97
2023-05-08T02:06:51.491Z,7.97
2023-05-08T02:09:18.101Z,7.96
2023-05-08T02:11:44.706Z,7.96
2023-05-08T02:14:11.656Z,7.95
2023-05-08T02:16:38.320Z,7.95
2023-05-08T02:19:05.115Z,7.94
2023-05-08T02:21:32.166Z,7.93
2023-05-08T02:23:59.022Z,7.93
2023-05-08T02:26:25.868Z,7.92
2023-05-08T02:28:56.204Z,7.92
2023-05-08T02:31:23.026Z,7.92
2023-05-08T02:33:49.662Z,7.90
2023-05-08T02:36:18.498Z,7.90
2023-05-08T02:38:47.255Z,7.89
2023-05-08T02:41:14.435Z,7.90
2023-05-08T02:43:41.881Z,7.89
2023-05-08T02:46:19.927Z,7.89
2023-05-08T02:48:57.502Z,7.86
2023-05-08T02:51:46.573Z,7.85
2023-05-08T02:54:23.050Z,7.85
2023-05-08T02:56:58.095Z,7.85
2023-05-08T02:59:45.654Z,7.85
2023-05-08T03:02:14.493Z,7.85
2023-05-08T03:04:51.502Z,7.83
2023-05-08T03:07:20.122Z,7.84
2023-05-08T03:09:48.843Z,7.84
2023-05-08T03:12:17.355Z,7.83
2023-05-08T03:14:53.355Z,7.82
2023-05-08T03:17:20.149Z,7.83
2023-05-08T03:19:50.142Z,7.83
2023-05-08T03:22:17.041Z,7.83
2023-05-08T03:24:43.743Z,7.84
2023-05-08T03:27:11.002Z,7.86
2023-05-08T03:29:38.593Z,7.90
2023-05-08T03:32:05.708Z,7.90
2023-05-08T03:34:32.330Z,7.88
2023-05-08T03:36:59.195Z,7.86
2023-05-08T03:39:26.834Z,7.86
2023-05-08T03:41:55.447Z,7.85
2023-05-08T03:44:21.990Z,7.84
2023-05-08T03:46:49.060Z,7.86
2023-05-08T03:49:15.958Z,7.85
2023-05-08T03:51:42.660Z,7.85
2023-05-08T03:54:09.259Z,7.86
2023-05-08T03:56:36.013Z,7.86
2023-05-08T03:59:28.280Z,7.88
2023-05-08T04:02:00.498Z,7.90
2023-05-08T04:04:30.431Z,7.90
2023-05-08T04:07:03.566Z,7.92
2023-05-08T04:10:03.175Z,7.95
2023-05-08T04:12:36.661Z,7.98
2023-05-08T04:15:13.203Z,8.00
2023-05-08T04:17:43.882Z,8.02
2023-05-08T04:20:13.859Z,8.04
2023-05-08T04:22:41.191Z,8.06
2023-05-08T04:25:09.037Z,8.09
2023-05-08T04:27:36.237Z,8.11
2023-05-08T04:30:03.397Z,8.14
2023-05-08T04:32:30.459Z,8.16
2023-05-08T04:34:58.565Z,8.17
2023-05-08T04:37:26.724Z,8.18
2023-05-08T04:39:54.221Z,8.21
2023-05-08T04:42:21.383Z,8.25
2023-05-08T04:44:48.438Z,8.29
2023-05-08T04:47:15.529Z,8.33
2023-05-08T04:49:42.499Z,8.35
2023-05-08T04:52:09.240Z,8.40
2023-05-08T04:54:36.104Z,8.42
2023-05-08T04:57:02.866Z,8.41
2023-05-08T04:59:29.736Z,8.40
2023-05-08T05:01:57.111Z,8.40
2023-05-08T05:04:23.915Z,8.41
2023-05-08T05:06:50.997Z,8.41
2023-05-08T05:09:17.661Z,8.41
2023-05-08T05:11:44.526Z,8.42
2023-05-08T05:14:13.891Z,8.43
2023-05-08T05:16:40.826Z,8.47
2023-05-08T05:19:07.687Z,8.52
2023-05-08T05:21:34.434Z,8.57
2023-05-08T05:24:01.698Z,8.61
2023-05-08T05:26:28.980Z,8.65
2023-05-08T05:28:55.947Z,8.68
2023-05-08T05:31:22.619Z,8.71
2023-05-08T05:33:49.998Z,8.74
2023-05-08T05:36:18.052Z,8.77
2023-05-08T05:38:44.689Z,8.85
2023-05-08T05:41:11.389Z,8.89
2023-05-08T05:43:38.226Z,8.94
2023-05-08T05:46:06.206Z,9.00
2023-05-08T05:48:33.481Z,9.07
2023-05-08T05:51:00.138Z,9.14
2023-05-08T05:53:26.784Z,9.21
2023-05-08T05:55:53.672Z,9.27
2023-05-08T05:58:20.806Z,9.34
2023-05-08T06:00:48.353Z,9.40
2023-05-08T06:03:15.126Z,9.47
2023-05-08T06:05:42.549Z,9.55
2023-05-08T06:08:09.242Z,9.64
2023-05-08T06:10:36.464Z,9.72
2023-05-08T06:13:03.179Z,9.80
2023-05-08T06:15:30.038Z,9.88
2023-05-08T06:17:57.069Z,9.99
2023-05-08T06:20:24.971Z,10.07
2023-05-08T06:22:53.199Z,10.14
2023-05-08T06:25:20.470Z,10.15
2023-05-08T06:27:47.124Z,10.15
2023-05-08T06:30:14.136Z,10.18
2023-05-08T06:32:40.952Z,10.20
2023-05-08T06:35:08.651Z,10.26
2023-05-08T06:37:35.340Z,10.33
2023-05-08T06:40:11.470Z,10.41
2023-05-08T06:42:38.522Z,10.49
2023-05-08T06:45:07.475Z,10.57
2023-05-08T06:47:34.215Z,10.67
2023-05-08T06:50:01.014Z,10.71
2023-05-08T06:52:27.616Z,10.74
2023-05-08T06:54:54.319Z,10.79
2023-05-08T06:57:21.283Z,10.83
2023-05-08T06:59:47.920Z,10.87
2023-05-08T07:02:16.395Z,10.94
2023-05-08T07:04:44.345Z,10.99
2023-05-08T07:07:11.633Z,11.00
2023-05-08T07:09:38.338Z,11.06
2023-05-08T07:12:05.379Z,11.10
2023-05-08T07:14:31.976Z,11.11
2023-05-08T07:16:58.808Z,11.14
2023-05-08T07:19:25.594Z,11.18
2023-05-08T07:21:52.662Z,11.21
2023-05-08T07:24:19.259Z,11.30
2023-05-08T07:26:46.181Z,11.40
2023-05-08T07:29:12.945Z,11.48
2023-05-08T07:31:40.570Z,11.54
2023-05-08T07:34:07.381Z,11.63
2023-05-08T07:36:34.136Z,11.72
2023-05-08T07:39:00.742Z,11.79
2023-05-08T07:41:27.583Z,11.85
2023-05-08T07:43:54.337Z,11.93
2023-05-08T07:46:22.107Z,12.01
2023-05-08T07:48:49.129Z,12.08
2023-05-08T07:51:16.009Z,12.14
2023-05-08T07:53:42.781Z,12.20
2023-05-08T07:56:09.803Z,12.25
2023-05-08T07:58:36.708Z,12.20
2023-05-08T08:01:03.908Z,12.11
2023-05-08T08:03:30.723Z,12.07
2023-05-08T08:05:57.585Z,12.10
2023-05-08T08:08:24.262Z,12.14
2023-05-08T08:10:50.966Z,12.17
2023-05-08T08:13:17.833Z,12.19
2023-05-08T08:15:44.811Z,12.20
2023-05-08T08:18:11.659Z,12.24
2023-05-08T08:20:38.454Z,12.29
2023-05-08T08:23:05.068Z,12.35
2023-05-08T08:25:31.779Z,12.42
2023-05-08T08:27:58.746Z,12.49
2023-05-08T08:30:25.640Z,12.42
2023-05-08T08:32:52.457Z,12.24
2023-05-08T08:35:19.169Z,12.09
2023-05-08T08:37:45.854Z,12.06
2023-05-08T08:40:12.561Z,12.09
2023-05-08T08:42:39.207Z,12.08
2023-05-08T08:45:06.973Z,12.07
2023-05-08T08:47:41.710Z,12.10
2023-05-08T08:50:12.853Z,12.19
2023-05-08T08:52:56.505Z,12.33
2023-05-08T08:55:26.439Z,12.41
2023-05-08T08:58:23.210Z,12.48
2023-05-08T09:00:50.196Z,12.39
2023-05-08T09:03:17.300Z,12.25
2023-05-08T09:05:45.473Z,12.20
2023-05-08T09:08:12.890Z,12.15
2023-05-08T09:10:39.558Z,12.08
2023-05-08T09:13:06.262Z,12.14
2023-05-08T09:15:33.449Z,12.21
2023-05-08T09:18:03.211Z,12.29
2023-05-08T09:20:30.056Z,12.32
2023-05-08T09:22:56.693Z,12.32
2023-05-08T09:25:23.338Z,12.33
2023-05-08T09:27:49.962Z,12.38
2023-05-08T09:30:17.102Z,12.47
2023-05-08T09:32:44.506Z,12.53
2023-05-08T09:35:11.862Z,12.59
2023-05-08T09:37:39.393Z,12.70
2023-05-08T09:40:22.477Z,12.80
2023-05-08T09:42:49.844Z,12.83
2023-05-08T09:45:31.174Z,12.83
2023-05-08T09:47:58.168Z,12.85
2023-05-08T09:50:25.673Z,12.87
2023-05-08T09:52:52.428Z,12.90
2023-05-08T09:55:19.473Z,12.93
2023-05-08T09:57:57.298Z,12.86
2023-05-08T10:00:25.495Z,12.78
2023-05-08T10:02:59.930Z,12.78
2023-05-08T10:05:32.397Z,12.80
2023-05-08T10:08:07.425Z,12.86
2023-05-08T10:10:36.964Z,12.89
2023-05-08T10:13:04.257Z,12.83
2023-05-08T10:15:33.838Z,12.82
2023-05-08T10:18:05.144Z,12.75
2023-05-08T10:20:32.490Z,12.72
2023-05-08T10:22:59.187Z,12.71
2023-05-08T10:25:25.886Z,12.73
2023-05-08T10:28:14.632Z,12.74
2023-05-08T10:30:44.383Z,12.77
2023-05-08T10:33:11.255Z,12.79
2023-05-08T10:35:37.927Z,12.80
2023-05-08T10:38:04.581Z,12.80
2023-05-08T10:40:31.280Z,12.74
2023-05-08T10:42:57.878Z,12.65
2023-05-08T10:45:24.456Z,12.63
2023-05-08T10:48:00.197Z,12.63
2023-05-08T10:50:56.583Z,12.64
2023-05-08T10:53:41.778Z,12.65
2023-05-08T10:56:09.577Z,12.67
2023-05-08T10:58:37.336Z,12.65
2023-05-08T11:01:07.930Z,12.60
2023-05-08T11:03:42.778Z,12.55
2023-05-08T11:06:09.770Z,12.52
2023-05-08T11:08:47.780Z,12.53
2023-05-08T11:11:19.825Z,12.58
2023-05-08T11:13:55.513Z,12.63
2023-05-08T11:16:54.911Z,12.70
2023-05-08T11:19:22.299Z,12.77
2023-05-08T11:22:11.728Z,12.81
2023-05-08T11:24:39.422Z,12.86
2023-05-08T11:27:06.061Z,12.89
2023-05-08T11:29:33.193Z,12.87
2023-05-08T11:32:00.281Z,12.83
2023-05-08T11:34:43.119Z,12.80
2023-05-08T11:37:20.534Z,12.76
2023-05-08T11:39:47.657Z,12.77
2023-05-08T11:42:29.573Z,12.79
2023-05-08T11:45:06.562Z,12.84
2023-05-08T11:47:44.255Z,12.88
2023-05-08T11:50:12.147Z,12.87
2023-05-08T11:52:41.251Z,12.80
2023-05-08T11:55:09.722Z,12.83
2023-05-08T11:57:36.463Z,12.85
2023-05-08T12:00:10.188Z,12.86
2023-05-08T12:02:41.757Z,12.88
2023-05-08T12:05:09.375Z,12.93
2023-05-08T12:07:46.765Z,12.98
2023-05-08T12:10:17.451Z,13.05
2023-05-08T12:12:45.013Z,13.08
2023-05-08T12:15:13.460Z,13.07
2023-05-08T12:17:40.964Z,13.02
2023-05-08T12:20:14.709Z,12.97
2023-05-08T12:22:42.100Z,12.98
2023-05-08T12:25:10.582Z,13.00
2023-05-08T12:27:37.739Z,13.04
2023-05-08T12:30:09.197Z,13.08
2023-05-08T12:32:43.261Z,13.00
2023-05-08T12:35:11.238Z,12.95
2023-05-08T12:37:38.156Z,12.95
2023-05-08T12:40:05.536Z,12.94
2023-05-08T12:42:45.494Z,12.93
2023-05-08T12:45:18.972Z,12.92
2023-05-08T12:47:47.343Z,12.88
2023-05-08T12:50:15.889Z,12.83
2023-05-08T12:52:43.103Z,12.85
2023-05-08T12:55:29.571Z,12.94
2023-05-08T12:58:14.254Z,13.05
2023-05-08T13:00:46.730Z,13.13
2023-05-08T13:03:15.392Z,13.22
2023-05-08T13:05:44.340Z,13.33
2023-05-08T13:08:11.161Z,13.40
2023-05-08T13:10:54.316Z,13.50
2023-05-08T13:13:26.073Z,13.65
2023-05-08T13:15:54.123Z,13.81
2023-05-08T13:18:21.878Z,13.88
2023-05-08T13:20:48.864Z,13.91
2023-05-08T13:23:15.796Z,13.90
2023-05-08T13:25:42.426Z,13.91
2023-05-08T13:28:09.812Z,13.93
2023-05-08T13:30:37.006Z,13.93
2023-05-08T13:33:04.903Z,13.88
2023-05-08T13:35:32.102Z,13.82
2023-05-08T13:37:58.917Z,13.75
2023-05-08T13:40:25.909Z,13.63
2023-05-08T13:42:52.583Z,13.56
2023-05-08T13:45:19.435Z,13.51
2023-05-08T13:47:46.899Z,13.52
2023-05-08T13:50:15.872Z,13.48
2023-05-08T13:52:42.746Z,13.43
2023-05-08T13:55:11.280Z,13.43
2023-05-08T13:57:38.766Z,13.45
2023-05-08T14:00:06.496Z,13.50
2023-05-08T14:02:37.680Z,13.45
2023-05-08T14:05:05.596Z,13.34
2023-05-08T14:07:32.210Z,13.27
2023-05-08T14:09:59.124Z,13.22
2023-05-08T14:12:25.888Z,13.18
2023-05-08T14:14:52.499Z,13.14
2023-05-08T14:17:19.228Z,13.08
2023-05-08T14:19:48.724Z,13.02
2023-05-08T14:22:15.355Z,13.01
2023-05-08T14:24:41.969Z,12.99
2023-05-08T14:27:08.615Z,12.95
2023-05-08T14:29:35.478Z,12.93
2023-05-08T14:32:02.397Z,12.94
2023-05-08T14:34:29.510Z,12.97
2023-05-08T14:36:56.223Z,12.99
2023-05-08T14:39:22.946Z,12.98
2023-05-08T14:42:05.691Z,12.93
2023-05-08T14:44:36.276Z,12.89
2023-05-08T14:47:02.891Z,12.87
2023-05-08T14:49:37.454Z,12.84
2023-05-08T14:52:05.740Z,12.83
2023-05-08T14:54:32.841Z,12.81
2023-05-08T14:56:59.800Z,12.81
2023-05-08T14:59:26.449Z,12.79
2023-05-08T15:01:53.106Z,12.78
2023-05-08T15:04:19.853Z,12.75
2023-05-08T15:06:46.928Z,12.71
2023-05-08T15:09:13.756Z,12.70
2023-05-08T15:11:40.713Z,12.68
2023-05-08T15:14:07.416Z,12.65
2023-05-08T15:16:34.066Z,12.62
2023-05-08T15:19:01.214Z,12.58
2023-05-08T15:21:28.549Z,12.58
2023-05-08T15:23:55.827Z,12.56
2023-05-08T15:26:22.759Z,12.57
2023-05-08T15:28:49.438Z,12.58
2023-05-08T15:31:16.395Z,12.56
2023-05-08T15:33:45.186Z,12.55
2023-05-08T15:36:13.240Z,12.53
2023-05-08T15:38:41.127Z,12.51
2023-05-08T15:41:12.104Z,12.44
2023-05-08T15:43:40.757Z,12.39
2023-05-08T15:46:07.612Z,12.34
2023-05-08T15:48:34.665Z,12.33
2023-05-08T15:51:01.514Z,12.29
2023-05-08T15:53:28.154Z,12.25
2023-05-08T15:55:55.736Z,12.23
2023-05-08T15:58:23.020Z,12.22
2023-05-08T16:00:49.725Z,12.18
2023-05-08T16:03:16.485Z,12.16
2023-05-08T16:05:43.590Z,12.16
2023-05-08T16:08:12.805Z,12.15
2023-05-08T16:10:40.804Z,12.16
2023-05-08T16:13:07.679Z,12.17
2023-05-08T16:15:34.546Z,12.16
2023-05-08T16:18:01.564Z,12.14
2023-05-08T16:20:28.322Z,12.14
2023-05-08T16:22:55.916Z,12.15
2023-05-08T16:25:22.576Z,12.16
2023-05-08T16:27:49.429Z,12.15
2023-05-08T16:30:16.569Z,12.13
2023-05-08T16:32:45.605Z,12.09
2023-05-08T16:35:12.554Z,12.04
2023-05-08T16:37:39.995Z,12.00
2023-05-08T16:40:07.901Z,11.97
2023-05-08T16:42:34.722Z,11.93
2023-05-08T16:45:01.492Z,11.89
2023-05-08T16:47:28.383Z,11.84
2023-05-08T16:49:55.539Z,11.81
2023-05-08T16:52:22.161Z,11.77
2023-05-08T16:54:48.872Z,11.75
2023-05-08T16:57:15.667Z,11.71
2023-05-08T16:59:42.537Z,11.68
2023-05-08T17:02:09.588Z,11.65
2023-05-08T17:04:36.461Z,11.62
2023-05-08T17:07:05.151Z,11.60
2023-05-08T17:09:33.067Z,11.58
2023-05-08T17:12:01.996Z,11.55
2023-05-08T17:14:28.692Z,11.51
2023-05-08T17:16:55.567Z,11.47
2023-05-08T17:19:22.489Z,11.44
2023-05-08T17:21:49.108Z,11.40
2023-05-08T17:24:15.724Z,11.36
2023-05-08T17:26:42.426Z,11.32
2023-05-08T17:29:09.102Z,11.28
2023-05-08T17:31:35.725Z,11.24
2023-05-08T17:34:02.382Z,11.20
2023-05-08T17:36:29.006Z,11.17
2023-05-08T17:38:55.972Z,11.14
2023-05-08T17:41:22.929Z,11.12
2023-05-08T17:43:49.585Z,11.08
2023-05-08T17:46:16.363Z,11.02
2023-05-08T17:48:43.175Z,10.99
2023-05-08T17:51:13.721Z,10.94
2023-05-08T17:53:40.509Z,10.88
2023-05-08T17:56:07.891Z,10.87
2023-05-08T17:58:34.548Z,10.84
2023-05-08T18:01:01.335Z,10.81
2023-05-08T18:03:28.202Z,10.78
2023-05-08T18:05:54.835Z,10.74
2023-05-08T18:08:21.479Z,10.71
2023-05-08T18:10:48.102Z,10.69
2023-05-08T18:13:14.897Z,10.65
2023-05-08T18:15:41.756Z,10.61
2023-05-08T18:18:08.667Z,10.60
2023-05-08T18:20:35.634Z,10.54
2023-05-08T18:23:02.280Z,10.49
2023-05-08T18:25:29.122Z,10.45
2023-05-08T18:27:55.869Z,10.42
2023-05-08T18:30:22.713Z,10.38
2023-05-08T18:32:50.815Z,10.33
2023-05-08T18:35:17.988Z,10.28
2023-05-08T18:37:44.617Z,10.24
2023-05-08T18:40:12.474Z,10.22
2023-05-08T18:42:39.560Z,10.19
2023-05-08T18:45:07.164Z,10.17
2023-05-08T18:47:33.886Z,10.10
2023-05-08T18:50:00.667Z,10.06
2023-05-08T18:52:27.658Z,10.02
2023-05-08T18:54:54.269Z,9.95
2023-05-08T18:57:20.989Z,9.91
2023-05-08T18:59:47.669Z,9.88
2023-05-08T19:02:14.613Z,9.83
2023-05-08T19:04:41.351Z,9.80
2023-05-08T19:07:08.256Z,9.78
2023-05-08T19:09:35.084Z,9.73
2023-05-08T19:12:01.770Z,9.69
2023-05-08T19:14:28.390Z,9.63
2023-05-08T19:16:57.063Z,9.58
2023-05-08T19:19:25.544Z,9.55
2023-05-08T19:21:52.316Z,9.52
2023-05-08T19:24:21.063Z,9.49
2023-05-08T19:26:48.106Z,9.46
2023-05-08T19:29:14.976Z,9.42
2023-05-08T19:31:41.608Z,9.39
2023-05-08T19:34:08.364Z,9.39
2023-05-08T19:36:37.676Z,9.35
2023-05-08T19:39:04.981Z,9.32
2023-05-08T19:41:32.097Z,9.29
2023-05-08T19:43:58.799Z,9.25
2023-05-08T19:46:25.537Z,9.22
2023-05-08T19:48:52.215Z,9.21
2023-05-08T19:51:18.909Z,9.17
2023-05-08T19:53:45.625Z,9.14
2023-05-08T19:56:12.527Z,9.11
2023-05-08T19:58:39.140Z,9.10
2023-05-08T20:01:05.859Z,9.07
2023-05-08T20:03:32.646Z,9.05
2023-05-08T20:05:59.410Z,9.05
2023-05-08T20:08:26.009Z,9.05
2023-05-08T20:10:52.659Z,9.02
2023-05-08T20:13:19.437Z,8.99
2023-05-08T20:15:46.223Z,8.97
2023-05-08T20:18:12.850Z,8.95
2023-05-08T20:20:39.475Z,8.94
2023-05-08T20:23:06.124Z,8.95
2023-05-08T20:25:32.842Z,8.93
2023-05-08T20:27:59.533Z,8.92
2023-05-08T20:30:26.248Z,8.91
2023-05-08T20:32:53.166Z,8.89
2023-05-08T20:35:20.038Z,8.87
2023-05-08T20:37:47.191Z,8.89
2023-05-08T20:40:14.585Z,8.92
2023-05-08T20:42:41.887Z,8.97
2023-05-08T20:45:09.520Z,9.00
2023-05-08T20:47:36.249Z,8.99
2023-05-08T20:50:03.521Z,8.99
2023-05-08T20:52:32.331Z,8.96
2023-05-08T20:54:59.384Z,8.95
2023-05-08T20:57:26.026Z,8.95
2023-05-08T20:59:52.656Z,8.99
2023-05-08T21:02:19.269Z,9.02
2023-05-08T21:04:45.940Z,9.03
2023-05-08T21:07:12.821Z,9.00
2023-05-08T21:09:39.434Z,9.02
2023-05-08T21:12:06.637Z,9.05
2023-05-08T21:14:33.360Z,9.06
2023-05-08T21:17:00.138Z,9.08
2023-05-08T21:19:26.845Z,9.08
2023-05-08T21:21:53.424Z,9.09
2023-05-08T21:24:20.114Z,9.09
2023-05-08T21:26:46.717Z,9.09
2023-05-08T21:29:13.328Z,9.07
2023-05-08T21:31:41.196Z,9.03
2023-05-08T21:34:07.948Z,8.97
2023-05-08T21:36:35.322Z,8.96
2023-05-08T21:39:02.461Z,8.89
2023-05-08T21:41:29.051Z,8.77
2023-05-08T21:43:56.195Z,8.65
2023-05-08T21:46:22.906Z,8.52
2023-05-08T21:48:49.627Z,8.39
2023-05-08T21:51:16.273Z,8.31
2023-05-08T21:53:42.890Z,8.24
2023-05-08T21:56:09.499Z,8.14
2023-05-08T21:58:36.228Z,8.08
2023-05-08T22:01:02.905Z,7.99
2023-05-08T22:03:30.785Z,7.92
2023-05-08T22:05:57.578Z,7.89
2023-05-08T22:08:24.163Z,7.83
2023-05-08T22:10:50.829Z,7.76
2023-05-08T22:13:17.553Z,7.70
2023-05-08T22:15:44.557Z,7.62
2023-05-08T22:18:11.309Z,7.53
2023-05-08T22:20:38.017Z,7.45
2023-05-08T22:23:04.705Z,7.43
2023-05-08T22:25:31.299Z,7.29
2023-05-08T22:27:58.103Z,7.20
2023-05-08T22:30:24.721Z,7.11
2023-05-08T22:32:56.002Z,7.01
2023-05-08T22:35:24.447Z,6.86
2023-05-08T22:37:52.383Z,6.72
2023-05-08T22:40:19.256Z,6.62
2023-05-08T22:42:46.162Z,6.51
2023-05-08T22:45:14.256Z,6.45
2023-05-08T22:47:41.297Z,6.38
2023-05-08T22:50:09.332Z,6.31
2023-05-08T22:52:36.244Z,6.26
2023-05-08T22:55:02.936Z,6.20
2023-05-08T22:57:29.797Z,6.13
2023-05-08T22:59:56.436Z,6.08
2023-05-08T23:02:23.475Z,6.04
2023-05-08T23:04:50.276Z,6.00
2023-05-08T23:07:17.063Z,5.95
2023-05-08T23:09:43.733Z,5.91
2023-05-08T23:12:10.343Z,5.85
2023-05-08T23:14:36.926Z,5.79
2023-05-08T23:17:03.596Z,5.72
2023-05-08T23:19:30.628Z,5.64
2023-05-08T23:21:57.228Z,5.55
2023-05-08T23:24:23.841Z,5.47
2023-05-08T23:26:52.462Z,5.41
2023-05-08T23:29:19.073Z,5.35
2023-05-08T23:31:45.783Z,5.30
2023-05-08T23:34:12.547Z,5.27
2023-05-08T23:36:39.141Z,5.24
2023-05-08T23:39:07.164Z,5.25
2023-05-08T23:41:34.178Z,5.29
2023-05-08T23:44:00.882Z,5.29
2023-05-08T23:46:28.066Z,5.24
2023-05-08T23:48:54.786Z,5.20
2023-05-08T23:51:21.631Z,5.15
2023-05-08T23:53:49.032Z,5.13
2023-05-08T23:56:15.758Z,5.12
